Terminal Aerodrome Forecast
Issued by NWS

Home | Current Version | Previous Version | Text Only | Print | Product List | Glossary On
Versions: 1 2 3 4 5 6 7 8 9 10 11 12 13 14 15 16 17
000
FTUS41 KCAR 060524
TAFFVE
TAF
KFVE 060524Z 0606/0706 32007KT P6SM SKC
     FM061100 30011KT P6SM FEW200
     FM061600 30014G25KT P6SM FEW200
     FM062300 31009KT P6SM FEW200=

USA.gov is the U.S. government's official web portal to all federal, state and local government web resources and services.